CSCL Long Beach — VRCZ7 — position and weather

sailwx.info

Track history (hours):
 
Tides and Currents Weather Stations Pressure Air Temp Water Temp Dewpoint Dewpoint Depression Visibility Wind Speed Wind Dir Waves Ship Positions

CSCL Long Beach

Last reported at 2015-Jul-03 09:16 UTC. Time now 2015-Jul-04 10:06 UTC.
Position N 36°09' E 121°19'.

Length 336.7 m; beam 45.6 m; draft 15 m.

Type: Cargo ship. MMSI: 477883900.

Date/timePositionNaut miles runAvg speedWind from/ knotsBaromVisibWave heightAir tempDewpointWater temp
2015-Jul-03 09:16N 36°09' E 121°19'0 0.0
2015-Jul-02 18:22N 36°09' E 121°19'0 0.1
2015-Jul-02 15:16N 36°09' E 121°19'0 0.0
2015-Jul-02 14:16N 36°09' E 121°19'0 0.0
2015-Jul-02 13:22N 36°09' E 121°19'0 0.0
2015-Jul-02 12:22N 36°09' E 121°19'0 0.0
2015-Jul-01 21:16N 36°09' E 121°19'0 0.1
2015-Jul-01 20:22N 36°09' E 121°19'414 8.1
2015-Jun-29 17:30N 29°26' E 123°10'1413.5
2015-Jun-29 16:30N 29°14' E 123°04'1313.8
2015-Jun-29 15:33N 29°02' E 122°58'1413.7
2015-Jun-29 14:32N 28°49' E 122°52'26914.1
2015-Jun-28 19:29N 25°07' E 120°01'1615.4
2015-Jun-28 18:29N 24°57' E 119°48'1915.7
2015-Jun-28 17:17N 24°45' E 119°32'2614.6
2015-Jun-28 15:31N 24°28' E 119°11'1514.0
2015-Jun-28 14:28N 24°19' E 118°58'1514.0
2015-Jun-28 13:25N 24°09' E 118°46'1614.2
2015-Jun-28 12:18N 23°59' E 118°33'1114.2
2015-Jun-28 11:32N 23°52' E 118°23'1514.7
2015-Jun-28 10:32N 23°43' E 118°11'1414.5
2015-Jun-28 09:33N 23°31' E 118°02'1514.8
2015-Jun-28 08:32N 23°23' E 117°48'1414.4
2015-Jun-28 07:32N 23°12' E 117°39'1413.9
2015-Jun-28 06:33N 22°60' E 117°32'  
Track history (hours):
 
Tides and Currents Weather Stations Pressure Air Temp Water Temp Dewpoint Dewpoint Depression Visibility Wind Speed Wind Dir Waves Ship Positions

CSCL Long Beach

Last reported at 2015-Jul-03 09:16 UTC. Time now 2015-Jul-04 10:06 UTC.
Position N 36°09' E 121°19'.

Length 336.7 m; beam 45.6 m; draft 15 m.

Type: Cargo ship. MMSI: 477883900.

Date/timePositionNaut miles runAvg speedWind from/ knotsBaromVisibWave heightAir tempDewpointWater temp
2015-Jul-03 09:16N 36°09' E 121°19'0 0.0
2015-Jul-02 18:22N 36°09' E 121°19'0 0.1
2015-Jul-02 15:16N 36°09' E 121°19'0 0.0
2015-Jul-02 14:16N 36°09' E 121°19'0 0.0
2015-Jul-02 13:22N 36°09' E 121°19'0 0.0
2015-Jul-02 12:22N 36°09' E 121°19'0 0.0
2015-Jul-01 21:16N 36°09' E 121°19'0 0.1
2015-Jul-01 20:22N 36°09' E 121°19'414 8.1
2015-Jun-29 17:30N 29°26' E 123°10'1413.5
2015-Jun-29 16:30N 29°14' E 123°04'1313.8
2015-Jun-29 15:33N 29°02' E 122°58'1413.7
2015-Jun-29 14:32N 28°49' E 122°52'26914.1
2015-Jun-28 19:29N 25°07' E 120°01'1615.4
2015-Jun-28 18:29N 24°57' E 119°48'1915.7
2015-Jun-28 17:17N 24°45' E 119°32'2614.6
2015-Jun-28 15:31N 24°28' E 119°11'1514.0
2015-Jun-28 14:28N 24°19' E 118°58'1514.0
2015-Jun-28 13:25N 24°09' E 118°46'1614.2
2015-Jun-28 12:18N 23°59' E 118°33'1114.2
2015-Jun-28 11:32N 23°52' E 118°23'1514.7
2015-Jun-28 10:32N 23°43' E 118°11'1414.5
2015-Jun-28 09:33N 23°31' E 118°02'1514.8
2015-Jun-28 08:32N 23°23' E 117°48'1414.4
2015-Jun-28 07:32N 23°12' E 117°39'1413.9
2015-Jun-28 06:33N 22°60' E 117°32'  

Dump ship's entire track history